createdAt,value
2019-03-27T00:01:51.869Z,93.57
2019-03-27T00:04:22.602Z,93.34
2019-03-27T00:06:53.306Z,93.31
2019-03-27T00:09:24.411Z,93.37
2019-03-27T00:11:55.499Z,93.12
2019-03-27T00:14:26.222Z,93.18
2019-03-27T00:16:57.250Z,93.46
2019-03-27T00:19:28.217Z,93.29
2019-03-27T00:21:59.119Z,92.99
2019-03-27T00:24:29.885Z,92.53
2019-03-27T00:27:00.531Z,91.98
2019-03-27T00:29:31.218Z,92.19
2019-03-27T00:32:01.856Z,92.58
2019-03-27T00:34:32.540Z,92.93
2019-03-27T00:37:03.216Z,92.62
2019-03-27T00:39:33.886Z,92.67
2019-03-27T00:42:04.907Z,92.73
2019-03-27T00:44:35.600Z,92.85
2019-03-27T00:47:06.565Z,92.60
2019-03-27T00:49:37.551Z,92.29
2019-03-27T00:52:08.215Z,92.04
2019-03-27T00:54:38.920Z,91.72
2019-03-27T00:57:09.679Z,91.27
2019-03-27T00:59:40.329Z,91.38
2019-03-27T01:02:11.009Z,91.69
2019-03-27T01:04:41.717Z,91.35
2019-03-27T01:07:12.654Z,91.19
2019-03-27T01:09:43.595Z,90.84
2019-03-27T01:12:14.895Z,90.88
2019-03-27T01:14:45.680Z,90.93
2019-03-27T01:17:16.694Z,90.59
2019-03-27T01:19:47.351Z,90.52
2019-03-27T01:22:18.069Z,90.00
2019-03-27T01:24:48.700Z,89.98
2019-03-27T01:27:19.568Z,90.15
2019-03-27T01:29:50.343Z,90.20
2019-03-27T01:32:21.038Z,90.48
2019-03-27T01:34:51.682Z,90.85
2019-03-27T01:37:22.513Z,91.03
2019-03-27T01:39:53.217Z,91.08
2019-03-27T01:42:24.319Z,90.97
2019-03-27T01:44:54.999Z,90.98
2019-03-27T01:47:26.088Z,90.72
2019-03-27T01:49:56.774Z,90.80
2019-03-27T01:52:27.443Z,90.59
2019-03-27T01:54:58.091Z,90.22
2019-03-27T01:57:28.837Z,90.26
2019-03-27T01:59:59.599Z,89.93
2019-03-27T02:02:30.363Z,89.89
2019-03-27T02:05:01.107Z,89.96
2019-03-27T02:07:31.739Z,90.03
2019-03-27T02:10:02.633Z,89.90
2019-03-27T02:12:33.632Z,89.84
2019-03-27T02:15:04.424Z,89.86
2019-03-27T02:17:35.078Z,89.65
2019-03-27T02:20:06.374Z,89.78
2019-03-27T02:22:37.069Z,89.68
2019-03-27T02:25:08.296Z,89.82
2019-03-27T02:27:39.290Z,89.69
2019-03-27T02:30:10.520Z,89.92
2019-03-27T02:32:41.299Z,90.16
2019-03-27T02:35:12.053Z,90.61
2019-03-27T02:37:42.680Z,90.81
2019-03-27T02:40:13.646Z,91.19
2019-03-27T02:42:44.447Z,91.07
2019-03-27T02:45:15.357Z,91.43
2019-03-27T02:47:46.148Z,91.50
2019-03-27T02:50:17.049Z,91.25
2019-03-27T02:52:47.870Z,91.13
2019-03-27T02:55:18.680Z,91.13
2019-03-27T02:57:49.437Z,90.96
2019-03-27T03:00:21.021Z,90.65
2019-03-27T03:02:51.785Z,90.31
2019-03-27T03:05:22.461Z,90.22
2019-03-27T03:07:53.103Z,90.40
2019-03-27T03:10:24.067Z,90.42
2019-03-27T03:12:54.809Z,90.56
2019-03-27T03:15:26.434Z,90.49
2019-03-27T03:17:57.167Z,90.53
2019-03-27T03:20:28.141Z,90.69
2019-03-27T03:22:59.713Z,90.77
2019-03-27T03:25:30.411Z,90.94
2019-03-27T03:28:01.450Z,90.88
2019-03-27T03:30:32.134Z,90.45
2019-03-27T03:33:02.877Z,90.42
2019-03-27T03:35:33.603Z,90.66
2019-03-27T03:38:04.292Z,90.74
2019-03-27T03:40:35.014Z,90.07
2019-03-27T03:43:05.961Z,89.99
2019-03-27T03:45:36.669Z,89.62
2019-03-27T03:48:09.813Z,89.69
2019-03-27T03:50:44.606Z,89.90
2019-03-27T03:53:16.479Z,89.88
2019-03-27T03:55:47.473Z,90.08
2019-03-27T03:58:18.597Z,90.19
2019-03-27T04:00:50.237Z,90.01
2019-03-27T04:03:24.168Z,89.92
2019-03-27T04:05:55.140Z,89.86
2019-03-27T04:08:25.856Z,89.77
2019-03-27T04:10:56.878Z,89.61
2019-03-27T04:13:27.601Z,89.46
2019-03-27T04:15:58.345Z,89.47
2019-03-27T04:18:28.967Z,89.42
2019-03-27T04:21:00.005Z,89.64
2019-03-27T04:23:30.818Z,89.65
2019-03-27T04:26:09.458Z,89.41
2019-03-27T04:28:34.783Z,88.85
2019-03-27T04:31:05.569Z,88.74
2019-03-27T04:33:36.229Z,88.35
2019-03-27T04:36:06.924Z,88.10
2019-03-27T04:38:38.372Z,88.04
2019-03-27T04:41:09.375Z,87.59
2019-03-27T04:43:40.094Z,87.49
2019-03-27T04:46:11.469Z,87.61
2019-03-27T04:48:42.487Z,87.36
2019-03-27T04:51:13.155Z,87.12
2019-03-27T04:53:43.927Z,87.37
2019-03-27T04:56:14.609Z,87.48
2019-03-27T04:58:45.337Z,87.54
2019-03-27T05:01:16.098Z,87.66
2019-03-27T05:03:47.048Z,87.26
2019-03-27T05:06:17.710Z,87.13
2019-03-27T05:08:48.410Z,87.71
2019-03-27T05:11:19.233Z,87.81
2019-03-27T05:13:49.925Z,87.48
2019-03-27T05:16:20.682Z,87.63
2019-03-27T05:18:51.417Z,87.28
2019-03-27T05:21:22.135Z,87.80
2019-03-27T05:23:52.896Z,87.63
2019-03-27T05:26:24.227Z,87.80
2019-03-27T05:28:54.891Z,87.90
2019-03-27T05:31:26.004Z,87.86
2019-03-27T05:33:56.710Z,88.15
2019-03-27T05:36:27.781Z,88.26
2019-03-27T05:38:58.515Z,87.96
2019-03-27T05:41:29.183Z,87.97
2019-03-27T05:43:59.960Z,88.05
2019-03-27T05:46:30.691Z,87.96
2019-03-27T05:49:01.934Z,87.90
2019-03-27T05:51:32.697Z,87.57
2019-03-27T05:54:03.373Z,87.62
2019-03-27T05:56:34.108Z,87.54
2019-03-27T05:59:04.917Z,87.30
2019-03-27T06:01:35.553Z,87.14
2019-03-27T06:04:06.308Z,87.09
2019-03-27T06:06:36.945Z,86.89
2019-03-27T06:09:08.826Z,86.79
2019-03-27T06:11:39.475Z,86.91
2019-03-27T06:14:10.158Z,86.72
2019-03-27T06:16:41.132Z,86.55
2019-03-27T06:19:11.833Z,86.17
2019-03-27T06:21:42.503Z,86.04
2019-03-27T06:24:13.445Z,86.05
2019-03-27T06:26:44.088Z,85.80
2019-03-27T06:29:15.964Z,85.40
2019-03-27T06:31:47.062Z,85.44
2019-03-27T06:34:17.719Z,85.18
2019-03-27T06:36:48.417Z,84.87
2019-03-27T06:39:19.327Z,84.10
2019-03-27T06:41:50.275Z,83.74
2019-03-27T06:44:21.229Z,84.01
2019-03-27T06:46:51.909Z,84.17
2019-03-27T06:49:22.560Z,83.58
2019-03-27T06:51:53.581Z,83.55
2019-03-27T06:54:24.527Z,83.47
2019-03-27T06:56:55.549Z,83.50
2019-03-27T06:59:26.210Z,83.90
2019-03-27T07:01:56.855Z,83.03
2019-03-27T07:04:27.525Z,82.26
2019-03-27T07:06:58.208Z,82.10
2019-03-27T07:09:29.234Z,82.58
2019-03-27T07:11:59.953Z,81.86
2019-03-27T07:14:30.916Z,81.48
2019-03-27T07:17:01.613Z,80.93
2019-03-27T07:19:32.290Z,80.47
2019-03-27T07:22:03.034Z,80.70
2019-03-27T07:24:33.701Z,79.04
2019-03-27T07:27:04.413Z,79.24
2019-03-27T07:29:35.079Z,77.38
2019-03-27T07:32:05.826Z,78.49
2019-03-27T07:34:36.729Z,77.25
2019-03-27T07:37:07.393Z,76.66
2019-03-27T07:39:38.267Z,76.53
2019-03-27T07:42:09.270Z,75.30
2019-03-27T07:44:39.957Z,74.37
2019-03-27T07:47:10.684Z,75.53
2019-03-27T07:49:41.351Z,74.94
2019-03-27T07:52:12.628Z,75.21
2019-03-27T07:54:43.668Z,77.05
2019-03-27T07:57:14.360Z,76.33
2019-03-27T07:59:45.024Z,74.20
2019-03-27T08:02:15.675Z,74.53
2019-03-27T08:04:46.384Z,73.12
2019-03-27T08:07:26.735Z,71.48
2019-03-27T08:09:49.540Z,70.53
2019-03-27T08:12:20.281Z,73.48
2019-03-27T08:14:51.054Z,72.88
2019-03-27T08:17:21.675Z,72.48
2019-03-27T08:19:52.406Z,72.52
2019-03-27T08:22:23.099Z,73.39
2019-03-27T08:24:53.767Z,72.86
2019-03-27T08:27:24.439Z,71.86
2019-03-27T08:29:55.146Z,71.90
2019-03-27T08:32:25.837Z,69.05
2019-03-27T08:34:56.528Z,66.35
2019-03-27T08:37:27.190Z,65.46
2019-03-27T08:39:58.371Z,65.11
2019-03-27T08:42:29.104Z,65.52
2019-03-27T08:44:59.805Z,65.52
2019-03-27T08:47:30.531Z,65.11
2019-03-27T08:50:02.505Z,59.94
2019-03-27T08:52:33.151Z,63.51
2019-03-27T08:55:04.093Z,65.12
2019-03-27T08:57:34.810Z,65.07
2019-03-27T09:00:09.210Z,63.23
2019-03-27T09:02:39.965Z,62.79
2019-03-27T09:05:11.794Z,63.19
2019-03-27T09:07:42.536Z,60.13
2019-03-27T09:10:14.083Z,59.27
2019-03-27T09:12:44.813Z,61.14
2019-03-27T09:15:15.772Z,61.41
2019-03-27T09:17:46.498Z,64.14
2019-03-27T09:20:18.977Z,64.05
2019-03-27T09:22:50.343Z,61.62
2019-03-27T09:25:21.371Z,61.37
2019-03-27T09:27:52.337Z,61.49
2019-03-27T09:30:23.990Z,60.33
2019-03-27T09:32:54.960Z,59.69
2019-03-27T09:35:25.958Z,56.92
2019-03-27T09:37:56.953Z,56.34
2019-03-27T09:40:27.673Z,59.11
2019-03-27T09:42:58.649Z,56.75
2019-03-27T09:45:29.604Z,53.31
2019-03-27T09:48:00.733Z,52.45
2019-03-27T09:50:31.413Z,56.81
2019-03-27T09:53:02.118Z,55.54
2019-03-27T09:55:32.821Z,53.07
2019-03-27T09:58:03.533Z,55.33
2019-03-27T10:01:03.146Z,54.15
2019-03-27T10:03:34.062Z,51.64
2019-03-27T10:06:04.789Z,54.01
2019-03-27T10:08:35.595Z,56.88
2019-03-27T10:11:06.807Z,56.15
2019-03-27T10:13:37.860Z,52.88
2019-03-27T10:16:08.663Z,53.47
2019-03-27T10:18:39.369Z,54.26
2019-03-27T10:21:10.135Z,56.22
2019-03-27T10:23:40.825Z,55.53
2019-03-27T10:26:13.266Z,56.28
2019-03-27T10:28:44.004Z,56.83
2019-03-27T10:31:14.766Z,53.51
2019-03-27T10:33:45.747Z,52.44
2019-03-27T10:36:16.458Z,55.02
2019-03-27T10:38:47.366Z,53.34
2019-03-27T10:41:18.330Z,50.25
2019-03-27T10:43:48.999Z,49.03
2019-03-27T10:46:19.725Z,44.71
2019-03-27T10:48:52.852Z,47.86
2019-03-27T10:51:23.119Z,48.13
2019-03-27T10:53:53.787Z,51.12
2019-03-27T10:56:24.789Z,50.59
2019-03-27T10:58:56.401Z,50.26
2019-03-27T11:01:27.430Z,49.43
2019-03-27T11:03:58.589Z,47.79
2019-03-27T11:06:29.286Z,46.35
2019-03-27T11:08:59.989Z,46.96
2019-03-27T11:11:30.820Z,51.17
2019-03-27T11:14:01.500Z,51.00
2019-03-27T11:16:32.178Z,50.49
2019-03-27T11:19:02.844Z,51.78
2019-03-27T11:21:33.812Z,53.68
2019-03-27T11:24:04.510Z,55.66
2019-03-27T11:26:35.174Z,55.05
2019-03-27T11:29:05.967Z,54.88
2019-03-27T11:31:36.599Z,53.33
2019-03-27T11:34:07.346Z,51.96
2019-03-27T11:36:38.051Z,52.85
2019-03-27T11:39:10.868Z,50.86
2019-03-27T11:41:41.554Z,48.95
2019-03-27T11:44:12.864Z,48.54
2019-03-27T11:46:43.882Z,46.90
2019-03-27T11:49:14.533Z,45.75
2019-03-27T11:51:45.345Z,45.03
2019-03-27T11:54:16.326Z,46.15
2019-03-27T11:56:47.082Z,48.19
2019-03-27T11:59:17.778Z,48.08
2019-03-27T12:01:48.513Z,47.42
2019-03-27T12:04:19.697Z,48.30
2019-03-27T12:06:50.389Z,49.17
2019-03-27T12:09:21.105Z,49.09
2019-03-27T12:11:52.087Z,49.42
2019-03-27T12:14:23.614Z,50.08
2019-03-27T12:16:54.239Z,49.83
2019-03-27T12:19:24.938Z,49.77
2019-03-27T12:21:55.607Z,50.09
2019-03-27T12:24:28.628Z,49.69
2019-03-27T12:26:58.851Z,48.82
2019-03-27T12:29:29.536Z,48.95
2019-03-27T12:32:00.777Z,50.10
2019-03-27T12:34:31.448Z,48.91
2019-03-27T12:37:02.101Z,48.90
2019-03-27T12:39:32.869Z,49.50
2019-03-27T12:42:03.861Z,49.43
2019-03-27T12:44:34.688Z,47.62
2019-03-27T12:47:05.864Z,46.72
2019-03-27T12:49:36.948Z,48.19
2019-03-27T12:52:07.732Z,47.28
2019-03-27T12:54:38.402Z,47.42
2019-03-27T12:57:09.130Z,48.57
2019-03-27T12:59:40.435Z,48.13
2019-03-27T13:02:11.214Z,48.88
2019-03-27T13:04:41.872Z,49.77
2019-03-27T13:07:12.960Z,48.15
2019-03-27T13:09:44.891Z,47.34
2019-03-27T13:12:15.607Z,46.01
2019-03-27T13:14:46.535Z,44.25
2019-03-27T13:17:17.202Z,45.13
2019-03-27T13:19:48.225Z,44.97
2019-03-27T13:22:18.940Z,45.33
2019-03-27T13:24:49.640Z,42.94
2019-03-27T13:27:20.673Z,42.30
2019-03-27T13:29:51.362Z,43.55
2019-03-27T13:32:22.340Z,44.07
2019-03-27T13:34:53.603Z,42.56
2019-03-27T13:37:24.355Z,41.62
2019-03-27T13:39:55.363Z,43.71
2019-03-27T13:42:26.513Z,45.51
2019-03-27T13:44:57.947Z,46.74
2019-03-27T13:47:28.593Z,46.24
2019-03-27T13:49:59.244Z,45.09
2019-03-27T13:52:29.948Z,44.86
2019-03-27T13:55:00.637Z,45.85
2019-03-27T13:57:32.026Z,45.46
2019-03-27T14:00:02.984Z,43.29
2019-03-27T14:02:33.731Z,43.56
2019-03-27T14:05:04.746Z,43.72
2019-03-27T14:07:35.419Z,47.82
2019-03-27T14:10:07.194Z,47.17
2019-03-27T14:12:37.954Z,48.00
2019-03-27T14:15:11.817Z,47.43
2019-03-27T14:17:42.560Z,47.67
2019-03-27T14:20:15.397Z,47.63
2019-03-27T14:22:46.089Z,47.13
2019-03-27T14:25:17.354Z,47.01
2019-03-27T14:27:48.527Z,46.96
2019-03-27T14:31:01.179Z,46.85
2019-03-27T14:33:31.824Z,47.34
2019-03-27T14:36:02.559Z,47.92
2019-03-27T14:38:33.205Z,47.39
2019-03-27T14:41:03.855Z,45.63
2019-03-27T14:43:34.527Z,45.66
2019-03-27T14:46:05.617Z,45.11
2019-03-27T14:48:36.343Z,45.20
2019-03-27T14:51:07.190Z,45.25
2019-03-27T14:53:37.855Z,44.95
2019-03-27T14:56:08.598Z,45.81
2019-03-27T14:58:39.281Z,45.15
2019-03-27T15:01:10.418Z,44.51
2019-03-27T15:03:41.076Z,44.70
2019-03-27T15:06:11.742Z,45.01
2019-03-27T15:08:43.970Z,45.70
2019-03-27T15:11:14.991Z,45.31
2019-03-27T15:13:45.656Z,46.04
2019-03-27T15:16:16.742Z,46.44
2019-03-27T15:18:47.443Z,47.26
2019-03-27T15:21:18.231Z,47.03
2019-03-27T15:23:49.226Z,46.53
2019-03-27T15:26:19.948Z,45.35
2019-03-27T15:28:51.026Z,46.18
2019-03-27T15:31:21.838Z,46.13
2019-03-27T15:33:53.272Z,45.22
2019-03-27T15:36:23.950Z,45.00
2019-03-27T15:38:54.627Z,46.17
2019-03-27T15:41:25.870Z,46.42
2019-03-27T15:43:56.816Z,47.69
2019-03-27T15:46:27.497Z,47.76
2019-03-27T15:48:58.170Z,47.72
2019-03-27T15:51:29.191Z,47.85
2019-03-27T15:53:59.871Z,48.04
2019-03-27T15:56:30.578Z,48.41
2019-03-27T15:59:01.845Z,51.83
2019-03-27T16:01:32.501Z,49.47
2019-03-27T16:04:03.192Z,52.04
2019-03-27T16:06:34.494Z,53.29
2019-03-27T16:09:08.979Z,54.41
2019-03-27T16:11:39.746Z,53.40
2019-03-27T16:14:10.538Z,53.62
2019-03-27T16:16:41.549Z,54.15
2019-03-27T16:19:12.257Z,53.78
2019-03-27T16:21:43.380Z,53.85
2019-03-27T16:24:14.071Z,54.20
2019-03-27T16:26:44.751Z,53.69
2019-03-27T16:29:15.731Z,53.88
2019-03-27T16:31:46.464Z,53.77
2019-03-27T16:34:17.158Z,53.32
2019-03-27T16:36:48.146Z,53.68
2019-03-27T16:39:18.869Z,53.86
2019-03-27T16:41:49.557Z,53.55
2019-03-27T16:44:20.203Z,53.93
2019-03-27T16:46:50.878Z,53.91
2019-03-27T16:49:21.550Z,54.11
2019-03-27T16:51:52.245Z,54.33
2019-03-27T16:54:23.283Z,53.98
2019-03-27T16:56:53.935Z,54.68
2019-03-27T16:59:24.672Z,54.61
2019-03-27T17:01:55.472Z,54.99
2019-03-27T17:04:26.554Z,55.03
2019-03-27T17:06:57.208Z,56.47
2019-03-27T17:09:27.877Z,54.75
2019-03-27T17:11:58.803Z,55.12
2019-03-27T17:14:29.880Z,55.71
2019-03-27T17:17:00.579Z,56.21
2019-03-27T17:19:31.678Z,57.03
2019-03-27T17:22:02.353Z,57.24
2019-03-27T17:24:33.366Z,57.70
2019-03-27T17:27:04.030Z,57.67
2019-03-27T17:29:34.731Z,57.42
2019-03-27T17:32:05.746Z,57.50
2019-03-27T17:34:36.436Z,57.38
2019-03-27T17:37:07.158Z,57.77
2019-03-27T17:39:37.868Z,57.38
2019-03-27T17:42:08.932Z,57.28
2019-03-27T17:44:39.657Z,57.05
2019-03-27T17:47:10.348Z,56.80
2019-03-27T17:49:40.996Z,56.61
2019-03-27T17:52:11.999Z,56.51
2019-03-27T17:54:43.247Z,56.68
2019-03-27T17:57:13.931Z,56.34
2019-03-27T17:59:45.032Z,56.54
2019-03-27T18:02:15.760Z,56.57
2019-03-27T18:04:46.424Z,56.79
2019-03-27T18:07:17.420Z,57.05
2019-03-27T18:09:48.396Z,57.17
2019-03-27T18:12:19.050Z,57.11
2019-03-27T18:14:49.813Z,57.31
2019-03-27T18:17:20.573Z,57.36
2019-03-27T18:19:51.282Z,57.52
2019-03-27T18:22:22.602Z,57.67
2019-03-27T18:24:53.308Z,57.62
2019-03-27T18:27:24.453Z,58.04
2019-03-27T18:29:55.455Z,57.84
2019-03-27T18:32:45.778Z,58.00
2019-03-27T18:35:16.521Z,58.00
2019-03-27T18:37:47.531Z,57.83
2019-03-27T18:40:18.249Z,58.18
2019-03-27T18:42:49.206Z,57.98
2019-03-27T18:45:19.896Z,58.07
2019-03-27T18:47:50.592Z,57.99
2019-03-27T18:50:21.283Z,57.84
2019-03-27T18:52:51.968Z,57.89
2019-03-27T18:55:26.800Z,57.87
2019-03-27T18:58:00.553Z,57.80
2019-03-27T19:00:28.110Z,57.84
2019-03-27T19:02:58.887Z,57.71
2019-03-27T19:05:30.643Z,57.59
2019-03-27T19:08:01.399Z,58.00
2019-03-27T19:10:32.102Z,58.10
2019-03-27T19:13:02.828Z,57.93
2019-03-27T19:15:33.711Z,58.27
2019-03-27T19:18:05.034Z,58.49
2019-03-27T19:20:35.920Z,58.94
2019-03-27T19:23:12.704Z,59.09
2019-03-27T19:25:43.415Z,59.83
2019-03-27T19:28:33.082Z,60.83
2019-03-27T19:31:04.103Z,61.42
2019-03-27T19:33:35.092Z,62.13
2019-03-27T19:36:06.633Z,62.79
2019-03-27T19:38:37.720Z,64.16
2019-03-27T19:41:08.840Z,65.11
2019-03-27T19:43:39.535Z,65.50
2019-03-27T19:46:10.651Z,65.67
2019-03-27T19:48:42.205Z,65.83
2019-03-27T19:51:12.971Z,65.80
2019-03-27T19:53:43.903Z,65.72
2019-03-27T19:56:15.005Z,65.61
2019-03-27T19:58:45.655Z,65.84
2019-03-27T20:01:17.016Z,65.75
2019-03-27T20:03:48.045Z,65.77
2019-03-27T20:06:18.719Z,65.75
2019-03-27T20:08:49.424Z,65.62
2019-03-27T20:11:20.504Z,65.49
2019-03-27T20:13:51.225Z,65.70
2019-03-27T20:16:22.354Z,65.80
2019-03-27T20:18:53.459Z,65.67
2019-03-27T20:21:24.135Z,65.72
2019-03-27T20:23:54.846Z,65.85
2019-03-27T20:26:25.582Z,66.07
2019-03-27T20:28:56.541Z,66.17
2019-03-27T20:31:27.219Z,66.64
2019-03-27T20:33:57.891Z,67.10
2019-03-27T20:36:28.848Z,67.43
2019-03-27T20:38:59.595Z,67.74
2019-03-27T20:41:30.303Z,68.14
2019-03-27T20:44:01.004Z,68.50
2019-03-27T20:46:32.352Z,68.82
2019-03-27T20:49:03.087Z,69.71
2019-03-27T20:51:34.154Z,71.10
2019-03-27T20:54:05.222Z,72.48
2019-03-27T20:56:36.164Z,74.34
2019-03-27T20:59:07.341Z,75.59
2019-03-27T21:01:38.625Z,76.79
2019-03-27T21:04:10.158Z,77.83
2019-03-27T21:06:41.389Z,78.29
2019-03-27T21:09:12.076Z,78.81
2019-03-27T21:11:43.075Z,79.05
2019-03-27T21:14:14.032Z,79.09
2019-03-27T21:16:44.725Z,79.10
2019-03-27T21:19:15.462Z,78.98
2019-03-27T21:21:46.150Z,78.87
2019-03-27T21:24:17.184Z,78.63
2019-03-27T21:26:48.201Z,78.41
2019-03-27T21:29:18.924Z,78.01
2019-03-27T21:31:52.323Z,78.02
2019-03-27T21:34:26.250Z,77.78
2019-03-27T21:36:57.611Z,77.92
2019-03-27T21:39:29.219Z,77.91
2019-03-27T21:41:59.954Z,77.97
2019-03-27T21:44:34.419Z,77.67
2019-03-27T21:47:05.778Z,78.05
2019-03-27T21:49:36.800Z,78.22
2019-03-27T21:52:07.607Z,79.16
2019-03-27T21:54:38.354Z,80.49
2019-03-27T21:57:09.403Z,81.42
2019-03-27T21:59:40.174Z,82.52
2019-03-27T22:02:11.440Z,82.72
2019-03-27T22:04:42.496Z,83.15
2019-03-27T22:07:13.266Z,83.93
2019-03-27T22:09:44.288Z,84.03
2019-03-27T22:12:15.418Z,84.56
2019-03-27T22:14:46.916Z,85.28
2019-03-27T22:17:17.931Z,85.62
2019-03-27T22:19:48.657Z,86.03
2019-03-27T22:22:20.173Z,86.46
2019-03-27T22:24:50.932Z,86.97
2019-03-27T22:27:22.022Z,87.96
2019-03-27T22:29:53.074Z,88.97
2019-03-27T22:32:24.572Z,89.63
2019-03-27T22:34:55.622Z,89.91
2019-03-27T22:37:45.383Z,90.57
2019-03-27T22:40:16.753Z,91.18
2019-03-27T22:42:48.216Z,91.70
2019-03-27T22:45:19.402Z,91.84
2019-03-27T22:47:50.093Z,92.24
2019-03-27T22:50:21.480Z,93.11
2019-03-27T22:52:52.835Z,93.45
2019-03-27T22:55:23.550Z,93.57
2019-03-27T22:57:54.664Z,93.68
2019-03-27T23:00:35.655Z,93.78
2019-03-27T23:03:17.747Z,93.87
2019-03-27T23:05:39.267Z,94.17
2019-03-27T23:08:10.367Z,94.49
2019-03-27T23:10:41.358Z,94.91
2019-03-27T23:13:12.695Z,95.14
2019-03-27T23:15:43.738Z,95.30
2019-03-27T23:18:14.775Z,95.47
2019-03-27T23:20:45.818Z,95.82
2019-03-27T23:23:16.557Z,95.87
2019-03-27T23:25:47.422Z,95.96
2019-03-27T23:28:18.438Z,95.78
2019-03-27T23:30:49.218Z,95.88
2019-03-27T23:33:21.029Z,96.00
2019-03-27T23:35:52.107Z,95.99
2019-03-27T23:38:23.431Z,96.15
2019-03-27T23:40:54.441Z,96.15
2019-03-27T23:43:25.503Z,96.05
2019-03-27T23:45:56.579Z,95.88
2019-03-27T23:48:27.822Z,95.91
2019-03-27T23:50:58.539Z,95.96
2019-03-27T23:53:29.262Z,96.33
2019-03-27T23:56:00.346Z,96.34
2019-03-27T23:58:31.312Z,96.21
